Time;durP1;ratioP1;P1;durP2;ratioP2;P2;SDS_P1;SDS_P2;PMS_P1;PMS_P2;Temp;Humidity;BMP_temperature;BMP_pressure;BME280_temperature;BME280_humidity;BME280_pressure;Samples;Min_cycle;Max_cycle;Signal;HPM_P1;HPM_P2
2022/07/21 00:02:00;;;;;;;7.87;4.20;;;20.20;99.90;;;;;;4864079;29;20256;-73
2022/07/21 00:04:27;;;;;;;9.80;4.53;;;20.10;99.90;;;;;;4879594;29;20192;-74
2022/07/21 00:06:54;;;;;;;8.00;4.97;;;20.10;99.90;;;;;;4879317;29;20212;-73
2022/07/21 00:09:21;;;;;;;8.03;4.70;;;20.10;99.90;;;;;;4863621;29;20223;-73
2022/07/21 00:11:48;;;;;;;6.83;4.23;;;20.10;99.90;;;;;;4878483;29;20675;-74
2022/07/21 00:14:17;;;;;;;6.67;4.40;;;20.00;99.90;;;;;;4879478;29;20635;-73
2022/07/21 00:16:44;;;;;;;7.90;4.70;;;20.00;99.90;;;;;;4877278;29;20200;-74
2022/07/21 00:19:12;;;;;;;7.17;4.60;;;20.10;99.90;;;;;;4878630;29;20201;-74
2022/07/21 00:21:39;;;;;;;10.27;4.23;;;20.00;99.90;;;;;;4879301;29;20249;-74
2022/07/21 00:24:06;;;;;;;6.10;4.40;;;20.00;99.90;;;;;;4864090;29;20203;-74
2022/07/21 00:26:33;;;;;;;8.43;4.07;;;20.00;99.90;;;;;;4879412;29;20196;-73
2022/07/21 00:29:00;;;;;;;6.93;4.20;;;20.00;99.90;;;;;;4863551;29;20233;-74
2022/07/21 00:31:27;;;;;;;7.53;4.40;;;19.90;99.90;;;;;;4880149;29;20702;-74
2022/07/21 00:33:54;;;;;;;7.30;4.10;;;19.90;99.90;;;;;;4879128;29;20312;-73
2022/07/21 00:36:22;;;;;;;8.27;4.57;;;19.90;99.90;;;;;;4878759;29;20307;-73
2022/07/21 00:38:50;;;;;;;7.70;4.17;;;19.90;99.90;;;;;;4878924;29;20200;-73
2022/07/21 00:41:17;;;;;;;7.50;4.40;;;19.90;99.90;;;;;;4863563;29;20217;-73
2022/07/21 00:43:44;;;;;;;6.73;4.20;;;19.90;99.90;;;;;;4878929;29;20667;-73
2022/07/21 00:46:11;;;;;;;7.67;4.00;;;19.90;99.90;;;;;;4878824;29;20225;-74
2022/07/21 00:48:38;;;;;;;5.60;4.07;;;19.80;99.90;;;;;;4878874;29;20199;-74
2022/07/21 00:51:05;;;;;;;5.70;4.03;;;19.80;99.90;;;;;;4878561;29;20339;-76
2022/07/21 00:53:33;;;;;;;6.23;3.93;;;19.80;99.90;;;;;;4878915;29;20224;-75
2022/07/21 00:56:00;;;;;;;8.60;3.63;;;19.80;99.90;;;;;;4862487;29;20209;-75
2022/07/21 00:58:27;;;;;;;5.93;4.00;;;19.80;99.90;;;;;;4870269;29;20727;-75
2022/07/21 01:00:55;;;;;;;5.17;3.63;;;19.80;99.90;;;;;;4863198;29;20620;-75
2022/07/21 01:03:25;;;;;;;6.20;3.80;;;19.90;99.90;;;;;;4859526;29;20190;-74
2022/07/21 01:05:52;;;;;;;7.40;3.87;;;19.70;99.90;;;;;;4859632;29;20229;-75
2022/07/21 01:08:19;;;;;;;5.80;3.70;;;19.80;99.90;;;;;;4861042;29;20593;-75
2022/07/21 01:10:46;;;;;;;5.70;3.80;;;19.70;99.90;;;;;;4859996;29;20260;-75
2022/07/21 01:13:13;;;;;;;5.97;3.80;;;19.80;99.90;;;;;;4859569;29;20193;-75
2022/07/21 01:15:40;;;;;;;6.03;3.57;;;19.80;99.90;;;;;;4859581;29;20201;-75
2022/07/21 01:18:08;;;;;;;4.90;3.50;;;19.70;99.90;;;;;;4859458;29;20296;-76
2022/07/21 01:20:40;;;;;;;6.73;3.80;;;19.70;99.90;;;;;;4859514;29;20197;-75
2022/07/21 01:23:08;;;;;;;5.60;3.40;;;19.70;99.90;;;;;;4844164;29;20292;-74
2022/07/21 01:25:35;;;;;;;6.70;4.37;;;19.70;99.90;;;;;;4859379;29;20293;-74
2022/07/21 01:28:02;;;;;;;5.37;3.90;;;19.70;99.90;;;;;;4859722;29;20205;-75
2022/07/21 01:30:31;;;;;;;5.90;3.70;;;19.60;99.90;;;;;;4859275;29;20261;-74
2022/07/21 01:33:02;;;;;;;9.53;3.97;;;19.60;99.90;;;;;;4858884;29;20222;-77
2022/07/21 01:35:32;;;;;;;4.57;3.67;;;19.50;99.90;;;;;;4859191;29;20257;-76
2022/07/21 01:38:00;;;;;;;7.20;3.70;;;19.40;99.90;;;;;;4859423;29;20715;-75
2022/07/21 01:43:12;;;;;;;5.10;3.60;;;19.40;99.90;;;;;;4858629;29;20289;-74
2022/07/21 01:45:42;;;;;;;6.43;4.17;;;19.40;99.90;;;;;;4858850;29;20289;-73
2022/07/21 01:48:10;;;;;;;7.90;3.87;;;19.30;99.90;;;;;;4859546;29;20190;-74
2022/07/21 01:50:37;;;;;;;6.07;3.43;;;19.30;99.90;;;;;;4860390;29;20240;-74
2022/07/21 01:53:04;;;;;;;6.73;3.77;;;19.30;99.90;;;;;;4859217;29;20209;-74
2022/07/21 01:55:32;;;;;;;5.37;3.90;;;19.30;99.90;;;;;;4844052;29;20205;-73
2022/07/21 01:58:01;;;;;;;5.73;3.67;;;19.30;99.90;;;;;;4843810;29;20296;-74
2022/07/21 02:00:27;;;;;;;8.07;3.83;;;19.30;99.90;;;;;;4859214;29;20241;-74
2022/07/21 02:02:54;;;;;;;6.00;3.60;;;19.30;99.90;;;;;;4860489;29;20692;-73
2022/07/21 02:05:22;;;;;;;6.00;3.43;;;19.30;99.90;;;;;;4859466;29;20201;-75
2022/07/21 02:07:49;;;;;;;6.73;3.70;;;19.30;99.90;;;;;;4859266;29;20304;-74
2022/07/21 02:10:16;;;;;;;8.00;4.03;;;19.30;99.90;;;;;;4859194;29;20237;-72
2022/07/21 02:12:43;;;;;;;9.47;4.63;;;19.20;99.90;;;;;;4858980;29;20198;-74
2022/07/21 02:15:10;;;;;;;6.20;3.97;;;19.30;99.90;;;;;;4843950;29;20304;-75
2022/07/21 02:17:37;;;;;;;5.77;3.67;;;19.20;99.90;;;;;;4859385;29;20198;-74
2022/07/21 02:20:05;;;;;;;6.73;3.60;;;19.20;99.90;;;;;;4859342;29;20213;-75
2022/07/21 02:22:32;;;;;;;4.60;3.57;;;19.20;99.90;;;;;;4862534;29;20723;-74
2022/07/21 02:24:59;;;;;;;5.13;3.40;;;19.20;99.90;;;;;;4847706;29;20570;-74
2022/07/21 02:27:26;;;;;;;8.00;3.50;;;19.20;99.90;;;;;;4862631;29;20209;-74
2022/07/21 02:29:53;;;;;;;7.13;3.77;;;19.20;99.90;;;;;;4862990;29;20216;-74
2022/07/21 02:32:20;;;;;;;5.57;3.23;;;19.20;99.90;;;;;;4847178;29;20708;-75
2022/07/21 02:34:46;;;;;;;5.80;3.47;;;19.10;99.90;;;;;;4862657;29;20300;-74
2022/07/21 02:37:13;;;;;;;5.50;3.30;;;19.10;99.90;;;;;;4862817;29;20568;-74
2022/07/21 02:39:40;;;;;;;5.40;3.30;;;19.10;99.90;;;;;;4847574;29;20292;-74
2022/07/21 02:42:07;;;;;;;6.33;3.43;;;19.10;99.90;;;;;;4861489;29;20205;-73
2022/07/21 02:44:35;;;;;;;5.90;3.23;;;19.00;99.90;;;;;;4862789;29;20209;-73
2022/07/21 02:47:03;;;;;;;4.73;3.00;;;19.00;99.90;;;;;;4862312;29;20296;-74
2022/07/21 02:49:30;;;;;;;5.53;3.43;;;19.00;99.90;;;;;;4863776;29;20202;-74
2022/07/21 02:51:57;;;;;;;5.10;3.00;;;19.00;99.90;;;;;;4862381;29;20221;-77
2022/07/21 02:54:24;;;;;;;5.37;3.10;;;19.00;99.90;;;;;;4862246;29;20205;-74
2022/07/21 02:56:51;;;;;;;3.60;3.10;;;19.00;99.90;;;;;;4862348;29;20674;-75
2022/07/21 02:59:18;;;;;;;5.17;3.40;;;19.00;99.90;;;;;;4863507;29;20236;-74
2022/07/21 03:01:45;;;;;;;16.37;4.00;;;19.00;99.90;;;;;;4863401;29;20250;-75
2022/07/21 03:04:12;;;;;;;5.67;3.20;;;19.00;99.90;;;;;;4862196;29;20194;-75
2022/07/21 03:06:40;;;;;;;6.77;2.97;;;19.10;99.90;;;;;;4862111;29;20260;-74
2022/07/21 03:09:07;;;;;;;5.13;3.00;;;19.00;99.90;;;;;;4846846;29;20198;-75
2022/07/21 03:11:34;;;;;;;6.27;3.40;;;19.10;99.90;;;;;;4861836;29;20257;-75
2022/07/21 03:14:01;;;;;;;6.07;3.10;;;19.10;99.90;;;;;;4862043;29;20229;-75
2022/07/21 03:16:28;;;;;;;5.47;3.57;;;19.10;99.90;;;;;;4847082;29;20205;-75
2022/07/21 03:18:55;;;;;;;7.57;3.27;;;19.10;99.90;;;;;;4863501;29;20194;-75
2022/07/21 03:21:23;;;;;;;4.63;3.23;;;19.10;99.90;;;;;;4861971;29;20305;-74
2022/07/21 03:23:49;;;;;;;4.30;3.23;;;19.10;99.90;;;;;;4861937;29;20208;-75
2022/07/21 03:26:16;;;;;;;5.77;3.20;;;19.10;99.90;;;;;;4863033;29;20198;-74
2022/07/21 03:28:45;;;;;;;6.33;3.73;;;19.10;99.90;;;;;;4861830;29;20296;-74
2022/07/21 03:31:12;;;;;;;5.53;3.23;;;19.10;99.90;;;;;;4861493;29;20337;-75
2022/07/21 03:33:39;;;;;;;4.77;3.37;;;19.10;99.90;;;;;;4861020;29;20312;-76
2022/07/21 03:36:07;;;;;;;6.00;3.53;;;19.10;99.90;;;;;;4861816;29;20213;-74
2022/07/21 03:38:34;;;;;;;5.17;3.60;;;19.10;99.90;;;;;;4862011;29;20228;-75
2022/07/21 03:41:01;;;;;;;7.93;3.67;;;19.10;99.90;;;;;;4861223;29;20233;-74
2022/07/21 03:43:28;;;;;;;5.87;3.33;;;19.10;99.90;;;;;;4862999;29;20633;-74
2022/07/21 03:45:55;;;;;;;6.33;3.53;;;19.20;99.90;;;;;;4861497;29;20210;-75
2022/07/21 03:48:21;;;;;;;3.93;3.13;;;19.20;99.90;;;;;;4861435;29;20288;-74
2022/07/21 03:50:48;;;;;;;5.33;3.60;;;19.10;99.90;;;;;;4861294;29;20631;-75
2022/07/21 03:53:15;;;;;;;6.67;3.80;;;19.20;99.90;;;;;;4862460;29;20326;-75
2022/07/21 03:55:42;;;;;;;7.87;3.80;;;19.20;99.90;;;;;;4861761;29;20264;-75
2022/07/21 03:58:09;;;;;;;7.20;3.80;;;19.20;99.90;;;;;;4861290;29;20263;-75
2022/07/21 04:00:39;;;;;;;4.93;3.50;;;19.30;99.90;;;;;;4861343;29;20328;-74
2022/07/21 04:03:07;;;;;;;6.37;3.80;;;19.30;99.90;;;;;;4860957;29;20219;-75
2022/07/21 04:05:35;;;;;;;7.07;3.63;;;19.30;99.90;;;;;;4861394;29;20209;-75
2022/07/21 04:08:02;;;;;;;6.37;3.67;;;19.40;99.90;;;;;;4861021;29;20209;-73
2022/07/21 04:10:32;;;;;;;7.83;3.83;;;19.40;99.90;;;;;;4860832;29;20711;-73
2022/07/21 04:13:03;;;;;;;5.00;3.50;;;19.50;99.90;;;;;;4862212;29;20225;-72
2022/07/21 04:15:30;;;;;;;5.30;3.40;;;19.40;99.90;;;;;;4861444;29;20212;-74
2022/07/21 04:17:57;;;;;;;6.60;3.80;;;19.50;99.90;;;;;;4861160;29;20244;-73
2022/07/21 04:20:24;;;;;;;5.23;3.73;;;19.50;99.90;;;;;;4861087;29;20300;-73
2022/07/21 04:22:51;;;;;;;6.57;3.77;;;19.50;99.90;;;;;;4861097;29;20233;-72
2022/07/21 04:25:19;;;;;;;7.53;3.73;;;19.50;99.90;;;;;;4862034;29;20287;-73
2022/07/21 04:27:47;;;;;;;7.50;3.87;;;19.60;99.90;;;;;;4861256;29;20205;-73
2022/07/21 04:30:17;;;;;;;6.70;3.83;;;19.60;99.90;;;;;;4860660;29;20209;-73
2022/07/21 04:32:45;;;;;;;7.23;3.87;;;19.70;99.90;;;;;;4860633;29;20735;-73
2022/07/21 04:35:13;;;;;;;7.17;4.00;;;19.70;99.90;;;;;;4860594;29;20292;-73
2022/07/21 04:37:40;;;;;;;7.60;4.00;;;19.80;99.90;;;;;;4860418;29;20213;-73
2022/07/21 04:40:10;;;;;;;4.67;3.67;;;19.80;99.90;;;;;;4861801;29;20253;-73
2022/07/21 04:42:38;;;;;;;6.60;3.73;;;19.80;99.90;;;;;;4860215;29;20657;-76
2022/07/21 04:45:07;;;;;;;5.87;4.10;;;19.90;99.90;;;;;;4861883;29;20221;-74
2022/07/21 04:47:51;;;;;;;5.60;3.70;;;19.90;99.90;;;;;;4860335;29;20217;-73
2022/07/21 04:50:20;;;;;;;4.50;3.53;;;20.00;99.90;;;;;;4844803;29;20201;-74
2022/07/21 04:52:47;;;;;;;6.07;3.60;;;20.00;99.90;;;;;;4860276;29;20213;-74
2022/07/21 04:55:15;;;;;;;8.07;3.83;;;20.00;99.90;;;;;;4860222;29;20205;-72
2022/07/21 04:57:45;;;;;;;6.27;3.67;;;20.10;99.90;;;;;;4860203;29;20244;-72
2022/07/21 05:00:15;;;;;;;7.47;3.87;;;20.20;99.90;;;;;;4860035;29;20320;-73
2022/07/21 05:02:42;;;;;;;6.83;3.10;;;20.30;99.90;;;;;;4861141;29;20289;-73
2022/07/21 05:05:09;;;;;;;7.40;3.30;;;20.30;99.90;;;;;;4860355;29;20305;-74
2022/07/21 05:07:37;;;;;;;5.60;3.43;;;20.40;99.90;;;;;;4861168;29;20202;-73
2022/07/21 05:10:09;;;;;;;8.73;3.50;;;20.40;99.90;;;;;;4861102;29;20194;-74
2022/07/21 05:12:39;;;;;;;5.87;3.30;;;20.50;99.90;;;;;;4861406;29;20692;-74
2022/07/21 05:15:09;;;;;;;4.50;3.57;;;20.50;99.90;;;;;;4859928;29;20201;-75
2022/07/21 05:17:36;;;;;;;6.87;3.20;;;20.60;99.90;;;;;;4861217;29;20236;-74
2022/07/21 05:20:05;;;;;;;4.53;3.00;;;20.70;99.90;;;;;;4859942;29;20194;-75
2022/07/21 05:22:32;;;;;;;3.87;2.80;;;20.70;99.90;;;;;;4859740;29;20210;-75
2022/07/21 05:24:59;;;;;;;5.20;2.97;;;20.80;99.90;;;;;;4859951;29;20197;-75
2022/07/21 05:27:26;;;;;;;5.17;3.13;;;21.00;99.90;;;;;;4859653;29;20227;-76
2022/07/21 05:29:53;;;;;;;5.77;3.10;;;21.00;99.90;;;;;;4859616;29;20296;-77
2022/07/21 05:32:20;;;;;;;11.60;4.13;;;21.00;99.90;;;;;;4859174;29;20609;-76
2022/07/21 05:34:51;;;;;;;7.23;3.30;;;21.00;99.90;;;;;;4859557;29;20209;-77
2022/07/21 05:37:21;;;;;;;5.83;3.30;;;21.00;99.90;;;;;;4844178;29;20289;-76
2022/07/21 05:39:50;;;;;;;5.93;3.27;;;21.10;99.90;;;;;;4859281;29;20671;-76
2022/07/21 05:42:17;;;;;;;10.93;3.40;;;21.20;99.90;;;;;;4859267;29;20285;-75
2022/07/21 05:44:44;;;;;;;5.73;3.00;;;21.30;99.90;;;;;;4860928;29;20708;-77
2022/07/21 05:47:14;;;;;;;4.07;2.87;;;21.40;99.90;;;;;;4859325;29;20262;-77
2022/07/21 05:49:41;;;;;;;7.73;3.20;;;21.50;99.90;;;;;;4859648;29;20281;-77
2022/07/21 05:52:10;;;;;;;5.77;3.27;;;21.60;99.90;;;;;;4859205;29;20241;-76
2022/07/21 05:54:37;;;;;;;5.03;2.73;;;21.60;99.90;;;;;;4859526;29;20208;-77
2022/07/21 05:57:05;;;;;;;7.07;2.70;;;21.70;99.90;;;;;;4862326;29;20220;-76
2022/07/21 05:59:33;;;;;;;12.83;3.27;;;21.70;99.90;;;;;;4863095;29;20272;-76
2022/07/21 06:02:00;;;;;;;3.80;2.57;;;21.70;99.90;;;;;;4863075;29;20205;-76
2022/07/21 06:04:27;;;;;;;8.57;2.93;;;21.80;99.90;;;;;;4863132;29;20598;-75
2022/07/21 06:06:55;;;;;;;6.87;2.83;;;21.90;99.90;;;;;;4862902;29;20209;-76
2022/07/21 06:09:22;;;;;;;6.47;2.70;;;22.00;99.90;;;;;;4863297;29;20240;-76
2022/07/21 06:11:52;;;;;;;3.30;2.57;;;22.20;99.90;;;;;;4862812;29;20629;-76
2022/07/21 06:14:19;;;;;;;4.57;2.60;;;22.10;99.90;;;;;;4863897;29;20551;-77
2022/07/21 06:16:46;;;;;;;5.47;2.60;;;22.10;99.90;;;;;;4862692;29;20210;-76
2022/07/21 06:19:13;;;;;;;4.13;2.70;;;22.20;99.90;;;;;;4862732;29;20209;-76
2022/07/21 06:21:46;;;;;;;4.60;2.33;;;22.30;99.90;;;;;;4862542;29;20229;-75
2022/07/21 06:24:13;;;;;;;5.73;2.63;;;22.40;99.90;;;;;;4862641;29;20211;-76
2022/07/21 06:26:40;;;;;;;4.43;2.47;;;22.50;99.90;;;;;;4862533;29;20206;-75
2022/07/21 06:29:08;;;;;;;4.93;2.40;;;22.50;99.90;;;;;;4862501;29;20640;-76
2022/07/21 06:31:34;;;;;;;5.47;2.40;;;22.50;99.90;;;;;;4862632;29;20637;-76
2022/07/21 06:34:02;;;;;;;4.10;2.70;;;22.60;99.90;;;;;;4864092;29;20576;-76
2022/07/21 06:36:29;;;;;;;4.22;2.60;;;22.70;99.90;;;;;;4863849;29;20204;-76
2022/07/21 06:38:56;;;;;;;5.20;2.90;;;22.60;99.90;;;;;;4863610;29;20229;-76
2022/07/21 06:41:25;;;;;;;6.43;2.60;;;22.70;99.90;;;;;;4863470;29;20622;-76
2022/07/21 06:43:52;;;;;;;5.90;2.67;;;22.70;99.90;;;;;;4861867;29;20214;-76
2022/07/21 06:46:20;;;;;;;4.88;2.60;;;22.80;99.90;;;;;;4866749;29;20201;-75
2022/07/21 06:48:47;;;;;;;5.32;2.60;;;22.90;99.90;;;;;;4882504;29;20258;-75
2022/07/21 06:51:14;;;;;;;5.70;2.55;;;22.90;99.90;;;;;;4861167;29;20719;-75
2022/07/21 06:53:42;;;;;;;7.25;3.00;;;23.00;99.90;;;;;;4861961;29;20672;-75
2022/07/21 06:56:09;;;;;;;5.75;3.08;;;23.20;99.90;;;;;;4862195;29;20186;-75
2022/07/21 06:58:36;;;;;;;6.43;2.63;;;23.20;99.90;;;;;;4861957;29;20674;-76
2022/07/21 07:01:07;;;;;;;4.40;2.60;;;23.10;99.90;;;;;;4862478;29;20237;-76
2022/07/21 07:03:35;;;;;;;9.40;2.63;;;23.10;99.90;;;;;;4855181;29;20210;-76
2022/07/21 07:06:02;;;;;;;4.47;2.77;;;23.30;99.90;;;;;;4863414;29;20580;-76
2022/07/21 07:08:29;;;;;;;4.03;3.00;;;23.20;99.90;;;;;;4860483;29;20242;-77
2022/07/21 07:10:56;;;;;;;7.75;2.95;;;23.30;99.90;;;;;;4861287;29;20205;-76
2022/07/21 07:13:24;;;;;;;5.03;2.72;;;23.30;99.90;;;;;;4863099;29;20206;-75
2022/07/21 07:16:11;;;;;;;5.28;2.60;;;23.40;99.90;;;;;;4862784;29;20213;-76
2022/07/21 07:18:38;;;;;;;8.25;2.55;;;23.50;99.90;;;;;;4862260;29;20213;-76
2022/07/21 07:21:06;;;;;;;5.95;2.45;;;23.70;99.90;;;;;;4861898;29;21279;-76
2022/07/21 07:23:38;;;;;;;3.10;2.15;;;23.60;99.90;;;;;;4861809;29;20213;-77
2022/07/21 07:26:05;;;;;;;3.70;2.05;;;23.70;99.90;;;;;;4861885;29;20214;-77
2022/07/21 07:28:32;;;;;;;4.63;2.03;;;23.70;99.90;;;;;;4863072;29;20289;-76
2022/07/21 07:30:59;;;;;;;3.50;2.10;;;23.80;99.90;;;;;;4865510;29;20228;-75
2022/07/21 07:33:27;;;;;;;3.17;2.00;;;23.80;99.90;;;;;;4862529;29;20233;-75
2022/07/21 07:35:56;;;;;;;2.47;1.95;;;24.00;99.90;;;;;;4862714;29;20210;-74
2022/07/21 07:38:24;;;;;;;2.97;1.83;;;24.00;99.90;;;;;;4845834;29;20213;-75
2022/07/21 07:40:52;;;;;;;3.38;1.70;;;23.90;99.90;;;;;;4861763;29;20201;-74
2022/07/21 07:43:19;;;;;;;2.70;2.10;;;24.00;99.90;;;;;;4862895;29;20205;-74
2022/07/21 07:45:46;;;;;;;4.13;1.88;;;24.20;99.90;;;;;;4861408;29;20755;-75
2022/07/21 07:48:13;;;;;;;11.90;2.72;;;24.20;99.90;;;;;;4861120;29;20215;-74
2022/07/21 07:50:40;;;;;;;5.38;1.98;;;24.30;99.90;;;;;;4861267;29;20308;-75
2022/07/21 07:53:07;;;;;;;3.95;2.33;;;24.40;99.90;;;;;;4860489;29;20233;-74
2022/07/21 07:55:34;;;;;;;4.35;2.10;;;24.50;99.90;;;;;;4861398;29;20212;-73
2022/07/21 07:58:01;;;;;;;4.60;1.98;;;24.60;99.90;;;;;;4861306;29;20204;-73
2022/07/21 08:00:28;;;;;;;3.60;2.10;;;24.60;99.90;;;;;;4860735;29;20240;-74
2022/07/21 08:03:15;;;;;;;2.17;1.90;;;24.70;99.90;;;;;;4859860;29;20208;-75
2022/07/21 08:05:42;;;;;;;3.47;1.90;;;24.80;99.90;;;;;;4859130;29;20641;-76
2022/07/21 08:08:09;;;;;;;3.67;2.15;;;24.90;99.90;;;;;;4860399;29;20193;-74
2022/07/21 08:10:36;;;;;;;2.83;2.13;;;24.90;99.90;;;;;;4860965;29;20214;-75
2022/07/21 08:13:08;;;;;;;4.45;2.20;;;25.00;99.90;;;;;;4860467;29;20229;-74
2022/07/21 08:15:36;;;;;;;5.35;2.03;;;24.90;99.90;;;;;;4861521;29;20288;-75
2022/07/21 08:18:04;;;;;;;3.45;2.03;;;25.00;99.90;;;;;;4860863;29;20206;-73
2022/07/21 08:20:32;;;;;;;5.72;2.10;;;25.10;99.90;;;;;;4860721;29;20206;-74
2022/07/21 08:22:59;;;;;;;4.82;2.20;;;25.20;99.90;;;;;;4861650;29;20253;-72
2022/07/21 08:25:26;;;;;;;3.88;2.20;;;25.50;99.90;;;;;;4862181;29;20202;-72
2022/07/21 08:27:53;;;;;;;3.65;1.90;;;26.20;99.90;;;;;;4861531;29;20300;-73
2022/07/21 08:30:20;;;;;;;3.22;2.10;;;26.80;99.90;;;;;;4861977;29;20197;-75
2022/07/21 08:32:55;;;;;;;6.72;2.00;;;27.70;99.00;;;;;;4861076;29;20218;-74
2022/07/21 08:35:22;;;;;;;3.65;2.10;;;28.50;96.90;;;;;;4860918;29;20201;-72
2022/07/21 08:38:07;;;;;;;4.45;1.98;;;29.00;92.90;;;;;;4860818;29;20206;-71
2022/07/21 08:40:40;;;;;;;3.47;1.65;;;29.10;91.40;;;;;;4861778;29;20304;-71
2022/07/21 08:43:08;;;;;;;1.98;1.50;;;29.40;90.00;;;;;;4862006;29;20218;-72
2022/07/21 08:45:37;;;;;;;3.17;1.65;;;29.80;85.80;;;;;;4861938;29;20205;-70
2022/07/21 08:48:04;;;;;;;3.72;1.50;;;29.90;85.50;;;;;;4860275;29;20232;-71
2022/07/21 08:50:34;;;;;;;3.75;1.55;;;30.20;82.60;;;;;;4860342;29;20591;-77
2022/07/21 08:53:02;;;;;;;2.03;1.27;;;30.20;79.80;;;;;;4860537;29;20246;-72
2022/07/21 08:55:35;;;;;;;2.20;1.30;;;30.30;79.20;;;;;;4860380;29;20608;-75
2022/07/21 08:58:03;;;;;;;2.08;1.30;;;30.30;79.50;;;;;;4860345;29;20198;-75
2022/07/21 09:00:37;;;;;;;7.35;1.83;;;30.60;77.30;;;;;;4860312;29;20273;-73
2022/07/21 09:03:26;;;;;;;2.90;1.40;;;30.50;72.20;;;;;;4861387;29;20209;-73
2022/07/21 09:06:06;;;;;;;1.38;1.20;;;30.60;72.30;;;;;;4860063;29;20216;-75
2022/07/21 09:08:35;;;;;;;2.97;1.40;;;30.90;69.90;;;;;;4860856;29;20237;-73
2022/07/21 09:11:33;;;;;;;1.85;1.15;;;31.20;69.90;;;;;;4859950;29;20329;-73
2022/07/21 09:14:10;;;;;;;4.72;1.60;;;31.40;70.30;;;;;;4860943;29;20274;-72
2022/07/21 09:16:43;;;;;;;3.75;1.42;;;31.70;70.90;;;;;;4860654;29;20208;-74
2022/07/21 09:19:23;;;;;;;3.63;1.40;;;32.10;69.00;;;;;;4860255;29;20201;-75
2022/07/21 09:21:52;;;;;;;7.95;1.73;;;32.00;67.50;;;;;;4861285;29;20571;-74
2022/07/21 09:24:29;;;;;;;1.80;1.40;;;32.00;66.30;;;;;;4860132;29;20237;-75
2022/07/21 09:27:11;;;;;;;2.90;1.55;;;31.40;66.60;;;;;;4861122;29;20213;-72
2022/07/21 09:29:46;;;;;;;7.35;1.88;;;31.60;69.40;;;;;;4860428;29;20237;-74
2022/07/21 09:32:17;;;;;;;2.95;1.48;;;31.80;69.20;;;;;;4844565;29;20315;-70
2022/07/21 09:34:47;;;;;;;2.22;1.52;;;31.60;66.00;;;;;;4859514;29;20292;-71
2022/07/21 09:37:14;;;;;;;3.50;1.50;;;31.10;68.10;;;;;;4861246;29;20624;-74
2022/07/21 09:39:54;;;;;;;2.83;1.65;;;31.00;67.70;;;;;;4859885;29;20288;-74
2022/07/21 09:42:34;;;;;;;2.50;1.58;;;31.50;68.40;;;;;;4859588;29;20237;-71
2022/07/21 09:45:10;;;;;;;3.33;1.90;;;31.30;67.30;;;;;;4859853;29;20210;-72
2022/07/21 09:47:39;;;;;;;4.57;1.63;;;30.80;67.80;;;;;;4860931;29;20344;-73
2022/07/21 09:50:08;;;;;;;4.95;1.75;;;30.90;68.50;;;;;;4859391;29;20206;-74
2022/07/21 09:52:53;;;;;;;3.35;1.52;;;31.50;68.20;;;;;;4860134;29;20279;-74
2022/07/21 09:55:20;;;;;;;3.08;1.70;;;32.10;66.90;;;;;;4861095;29;20280;-72
2022/07/21 09:57:47;;;;;;;2.60;1.80;;;32.30;65.40;;;;;;4860051;29;20292;-72
2022/07/21 10:00:17;;;;;;;2.20;1.70;;;32.10;65.90;;;;;;4859276;29;20685;-72
2022/07/21 10:02:47;;;;;;;6.47;1.60;;;32.50;66.10;;;;;;4860414;29;20202;-75
2022/07/21 10:05:18;;;;;;;4.72;1.70;;;32.90;65.60;;;;;;4859420;29;20209;-72
2022/07/21 10:07:48;;;;;;;4.10;2.00;;;32.80;68.20;;;;;;4859481;29;20254;-74
2022/07/21 10:10:17;;;;;;;3.50;1.63;;;32.40;66.40;;;;;;4860819;29;20687;-74
2022/07/21 10:12:48;;;;;;;3.75;1.88;;;32.60;67.50;;;;;;4860724;29;20779;-73
2022/07/21 10:15:15;;;;;;;1.95;1.63;;;32.70;69.80;;;;;;4860690;29;20535;-73
2022/07/21 10:17:45;;;;;;;2.83;1.70;;;33.00;67.90;;;;;;4859385;29;20715;-74
2022/07/21 10:20:12;;;;;;;2.58;1.80;;;33.30;64.50;;;;;;4860279;29;20198;-73
2022/07/21 10:23:07;;;;;;;2.53;1.67;;;32.80;61.40;;;;;;4860398;29;20242;-73
2022/07/21 10:25:35;;;;;;;4.10;1.50;;;32.30;64.80;;;;;;4859352;29;20202;-72
2022/07/21 10:28:11;;;;;;;3.58;1.55;;;31.50;64.50;;;;;;4861053;29;20197;-74
2022/07/21 10:30:42;;;;;;;2.50;1.70;;;31.90;66.50;;;;;;4859599;29;20536;-73
2022/07/21 10:33:09;;;;;;;3.60;1.70;;;32.20;65.40;;;;;;4859660;29;20222;-73
2022/07/21 10:35:41;;;;;;;4.88;2.00;;;32.70;63.90;;;;;;4860518;29;20204;-75
2022/07/21 10:38:32;;;;;;;3.60;1.65;;;32.70;60.50;;;;;;4859807;29;20299;-73
2022/07/21 10:41:01;;;;;;;4.30;1.70;;;32.40;63.10;;;;;;4859862;29;20202;-71
2022/07/21 10:43:28;;;;;;;2.70;1.60;;;33.00;61.80;;;;;;4862763;29;20325;-74
2022/07/21 10:45:57;;;;;;;3.03;1.67;;;33.20;60.90;;;;;;4863851;29;20217;-74
2022/07/21 10:48:36;;;;;;;3.25;1.70;;;33.20;59.50;;;;;;4863986;29;20628;-76
2022/07/21 10:51:07;;;;;;;2.97;1.70;;;33.50;58.00;;;;;;4862771;29;20201;-77
2022/07/21 10:53:34;;;;;;;2.47;1.70;;;33.50;59.10;;;;;;4863973;29;20308;-79
2022/07/21 10:56:02;;;;;;;4.10;1.80;;;34.20;59.60;;;;;;4862406;29;20273;-77
2022/07/21 10:58:31;;;;;;;3.78;1.88;;;34.40;57.20;;;;;;4862401;29;20257;-79
2022/07/21 11:01:05;;;;;;;3.33;1.63;;;34.60;58.20;;;;;;4862334;29;20238;-77
2022/07/21 11:03:43;;;;;;;2.90;1.70;;;34.60;56.60;;;;;;4862401;29;20213;-79
2022/07/21 11:06:16;;;;;;;2.92;1.70;;;34.50;56.80;;;;;;4862740;29;20296;-75
2022/07/21 11:08:52;;;;;;;5.78;1.67;;;35.20;55.30;;;;;;4862202;29;20245;-78
2022/07/21 11:11:27;;;;;;;3.38;1.70;;;35.20;56.10;;;;;;4862572;29;20229;-78
2022/07/21 11:14:06;;;;;;;3.47;1.60;;;35.90;55.20;;;;;;4862140;29;20233;-74
2022/07/21 11:16:56;;;;;;;2.90;1.70;;;36.60;54.30;;;;;;4862327;29;20205;-82
2022/07/21 11:19:35;;;;;;;2.67;1.65;;;37.00;53.50;;;;;;4862029;29;20208;-78
2022/07/21 11:22:05;;;;;;;4.93;1.88;;;37.40;53.10;;;;;;4862070;29;20300;-77
2022/07/21 11:24:33;;;;;;;3.28;1.50;;;37.40;50.40;;;;;;4862275;29;20209;-77
2022/07/21 11:27:01;;;;;;;6.18;1.75;;;36.80;52.00;;;;;;4862080;29;20238;-77
2022/07/21 11:29:38;;;;;;;1.70;1.30;;;37.10;52.40;;;;;;4862854;29;20296;-77
2022/07/21 11:32:05;;;;;;;4.03;1.80;;;37.00;50.20;;;;;;4862295;29;20234;-78
2022/07/21 11:34:52;;;;;;;4.75;1.98;;;36.90;51.90;;;;;;4861683;29;20296;-77
2022/07/21 11:37:33;;;;;;;4.10;1.63;;;37.20;50.40;;;;;;4861987;29;20206;-77
2022/07/21 11:40:12;;;;;;;6.15;1.80;;;37.60;50.20;;;;;;4861469;29;20209;-77
2022/07/21 11:42:41;;;;;;;5.25;1.65;;;38.00;50.90;;;;;;4863059;29;20200;-77
2022/07/21 11:45:09;;;;;;;2.17;1.60;;;38.30;49.50;;;;;;4862645;29;20198;-78
2022/07/21 11:47:55;;;;;;;5.53;1.60;;;38.30;47.80;;;;;;4863198;29;20667;-78
2022/07/21 11:50:22;;;;;;;3.28;1.80;;;37.00;49.20;;;;;;4862868;29;20201;-78
2022/07/21 11:52:52;;;;;;;3.08;1.73;;;36.70;50.70;;;;;;4862582;29;20221;-77
2022/07/21 11:55:19;;;;;;;3.72;1.80;;;37.60;50.20;;;;;;4861278;29;20210;-79
2022/07/21 11:58:15;;;;;;;2.60;1.70;;;38.30;49.80;;;;;;4862898;29;20201;-78
2022/07/21 12:00:42;;;;;;;3.78;1.90;;;38.80;48.40;;;;;;4860987;29;20268;-77
2022/07/21 12:03:10;;;;;;;3.35;1.60;;;38.40;48.20;;;;;;4861145;29;20209;-73
2022/07/21 12:05:39;;;;;;;2.65;1.75;;;38.70;48.00;;;;;;4861306;29;20214;-74
2022/07/21 12:08:09;;;;;;;3.50;1.80;;;38.90;47.60;;;;;;4862530;29;20205;-83
2022/07/21 12:11:14;;;;;;;4.13;1.95;;;38.90;47.30;;;;;;4861536;29;20249;-82
2022/07/21 12:13:58;;;;;;;4.32;1.95;;;38.70;47.80;;;;;;4859765;29;20289;-80
2022/07/21 12:16:25;;;;;;;2.60;1.70;;;38.40;47.30;;;;;;4861296;29;20201;-84
2022/07/21 12:19:11;;;;;;;2.13;1.58;;;38.70;48.10;;;;;;4861169;29;20198;-80
2022/07/21 12:21:51;;;;;;;2.35;1.70;;;39.10;47.10;;;;;;4861113;29;20261;-78
2022/07/21 12:24:19;;;;;;;3.30;1.77;;;39.00;47.00;;;;;;4861852;29;20563;-79
2022/07/21 12:26:46;;;;;;;4.57;1.98;;;39.00;47.00;;;;;;4862076;29;20293;-78
2022/07/21 12:29:28;;;;;;;3.30;1.67;;;39.40;46.80;;;;;;4861481;29;20304;-79
2022/07/21 12:31:55;;;;;;;4.25;1.90;;;39.80;46.20;;;;;;4861114;29;20221;-81
2022/07/21 12:34:24;;;;;;;2.58;1.77;;;39.90;46.20;;;;;;4861176;29;20245;-78
2022/07/21 12:36:58;;;;;;;3.38;2.05;;;39.80;45.90;;;;;;4861872;29;20220;-80
2022/07/21 12:42:32;;;;;;;5.47;2.03;;;40.00;44.90;;;;;;4861493;29;20209;-80
2022/07/21 12:44:59;;;;;;;3.10;1.90;;;40.10;45.10;;;;;;4860421;29;20241;-77
2022/07/21 12:47:29;;;;;;;3.47;1.83;;;40.30;44.80;;;;;;4860972;29;20304;-75
2022/07/21 12:49:59;;;;;;;4.50;1.80;;;40.40;44.30;;;;;;4860793;29;20189;-76
2022/07/21 12:52:40;;;;;;;3.70;1.60;;;40.40;44.20;;;;;;4860273;29;20292;-78
2022/07/21 12:55:08;;;;;;;5.18;2.00;;;40.70;44.80;;;;;;4860386;29;20233;-78
2022/07/21 12:57:35;;;;;;;2.20;1.70;;;40.70;43.70;;;;;;4861256;29;20213;-79
2022/07/21 13:00:17;;;;;;;3.88;1.85;;;40.70;44.20;;;;;;4857056;29;20334;-78
2022/07/21 13:02:52;;;;;;;6.38;1.73;;;40.80;43.40;;;;;;4857730;29;20198;-80
2022/07/21 13:05:20;;;;;;;2.72;1.80;;;40.20;44.30;;;;;;4857695;29;20666;-80